sensor_id;sensor_type;location;lat;lon;timestamp;pressure;altitude;pressure_sealevel;temperature;humidity
28626;BME280;18905;42.668;23.364;2023-07-31T00:00:24;94741.22;;;21.55;100.00
28626;BME280;18905;42.668;23.364;2023-07-31T00:02:49;94748.25;;;21.74;100.00
28626;BME280;18905;42.668;23.364;2023-07-31T00:05:15;94749.88;;;21.40;100.00
28626;BME280;18905;42.668;23.364;2023-07-31T00:07:40;94736.91;;;21.40;100.00
28626;BME280;18905;42.668;23.364;2023-07-31T00:10:06;94747.13;;;21.40;100.00
28626;BME280;18905;42.668;23.364;2023-07-31T00:12:32;94765.91;;;21.66;100.00
28626;BME280;18905;42.668;23.364;2023-07-31T00:14:57;94772.19;;;21.56;100.00
28626;BME280;18905;42.668;23.364;2023-07-31T00:17:23;94762.03;;;21.53;100.00
28626;BME280;18905;42.668;23.364;2023-07-31T00:19:48;94732.63;;;21.22;100.00
28626;BME280;18905;42.668;23.364;2023-07-31T00:22:16;94751.41;;;21.30;100.00
28626;BME280;18905;42.668;23.364;2023-07-31T00:24:41;94731.41;;;20.98;100.00
28626;BME280;18905;42.668;23.364;2023-07-31T00:27:06;94737.72;;;21.13;100.00
28626;BME280;18905;42.668;23.364;2023-07-31T00:29:32;94757.72;;;21.27;100.00
28626;BME280;18905;42.668;23.364;2023-07-31T00:31:57;94743.22;;;21.23;100.00
28626;BME280;18905;42.668;23.364;2023-07-31T00:34:22;94730.63;;;21.19;100.00
28626;BME280;18905;42.668;23.364;2023-07-31T00:36:48;94701.22;;;21.09;100.00
28626;BME280;18905;42.668;23.364;2023-07-31T00:39:13;94720.81;;;21.35;100.00
28626;BME280;18905;42.668;23.364;2023-07-31T00:41:38;94714.16;;;21.19;100.00
28626;BME280;18905;42.668;23.364;2023-07-31T00:44:04;94733.75;;;21.42;100.00
28626;BME280;18905;42.668;23.364;2023-07-31T00:46:29;94719.25;;;21.24;100.00
28626;BME280;18905;42.668;23.364;2023-07-31T00:48:55;94744.34;;;20.91;100.00
28626;BME280;18905;42.668;23.364;2023-07-31T00:51:20;94746.34;;;21.04;100.00
28626;BME280;18905;42.668;23.364;2023-07-31T00:53:46;94713.34;;;20.86;100.00
28626;BME280;18905;42.668;23.364;2023-07-31T00:56:12;94749.50;;;21.13;100.00
28626;BME280;18905;42.668;23.364;2023-07-31T00:58:37;94731.81;;;21.11;100.00
28626;BME280;18905;42.668;23.364;2023-07-31T01:01:03;94732.63;;;21.08;100.00
28626;BME280;18905;42.668;23.364;2023-07-31T01:03:28;94692.97;;;20.80;100.00
28626;BME280;18905;42.668;23.364;2023-07-31T01:08:43;94722.81;;;20.93;100.00
28626;BME280;18905;42.668;23.364;2023-07-31T01:11:17;94735.66;;;20.57;100.00
28626;BME280;18905;42.668;23.364;2023-07-31T01:13:45;94726.66;;;20.67;100.00
28626;BME280;18905;42.668;23.364;2023-07-31T01:16:11;94731.78;;;20.82;100.00
28626;BME280;18905;42.668;23.364;2023-07-31T01:18:37;94722.34;;;20.66;100.00
28626;BME280;18905;42.668;23.364;2023-07-31T01:21:22;94707.44;;;20.60;100.00
28626;BME280;18905;42.668;23.364;2023-07-31T01:26:58;94725.09;;;20.73;100.00
28626;BME280;18905;42.668;23.364;2023-07-31T01:30:11;94715.69;;;20.56;100.00
28626;BME280;18905;42.668;23.364;2023-07-31T01:32:36;94723.53;;;20.75;100.00
28626;BME280;18905;42.668;23.364;2023-07-31T01:35:04;94686.22;;;20.32;100.00
28626;BME280;18905;42.668;23.364;2023-07-31T01:37:30;94704.28;;;20.54;100.00
28626;BME280;18905;42.668;23.364;2023-07-31T01:39:55;94688.97;;;20.25;100.00
28626;BME280;18905;42.668;23.364;2023-07-31T01:42:20;94705.47;;;20.50;100.00
28626;BME280;18905;42.668;23.364;2023-07-31T01:44:46;94683.44;;;20.18;100.00
28626;BME280;18905;42.668;23.364;2023-07-31T01:47:11;94716.44;;;20.50;100.00
28626;BME280;18905;42.668;23.364;2023-07-31T01:49:36;94698.78;;;20.40;100.00
28626;BME280;18905;42.668;23.364;2023-07-31T01:52:02;94710.13;;;20.32;100.00
28626;BME280;18905;42.668;23.364;2023-07-31T01:54:27;94723.50;;;20.54;100.00
28626;BME280;18905;42.668;23.364;2023-07-31T01:56:53;94725.00;;;20.24;100.00
28626;BME280;18905;42.668;23.364;2023-07-31T01:59:18;94731.72;;;20.47;100.00
28626;BME280;18905;42.668;23.364;2023-07-31T02:01:43;94685.69;;;19.95;100.00
28626;BME280;18905;42.668;23.364;2023-07-31T02:04:09;94732.88;;;20.39;100.00
28626;BME280;18905;42.668;23.364;2023-07-31T02:06:34;94696.81;;;20.30;100.00
28626;BME280;18905;42.668;23.364;2023-07-31T02:09:00;94725.03;;;20.31;100.00
28626;BME280;18905;42.668;23.364;2023-07-31T02:11:25;94710.44;;;20.09;100.00
28626;BME280;18905;42.668;23.364;2023-07-31T02:13:50;94732.78;;;20.18;100.00
28626;BME280;18905;42.668;23.364;2023-07-31T02:16:16;94754.38;;;20.34;100.00
28626;BME280;18905;42.668;23.364;2023-07-31T02:18:41;94732.72;;;20.04;100.00
28626;BME280;18905;42.668;23.364;2023-07-31T02:21:06;94750.84;;;20.26;100.00
28626;BME280;18905;42.668;23.364;2023-07-31T02:23:32;94754.44;;;20.41;100.00
28626;BME280;18905;42.668;23.364;2023-07-31T02:25:57;94752.03;;;20.32;100.00
28626;BME280;18905;42.668;23.364;2023-07-31T02:28:23;94760.25;;;20.32;100.00
28626;BME280;18905;42.668;23.364;2023-07-31T02:30:50;94761.84;;;20.40;100.00
28626;BME280;18905;42.668;23.364;2023-07-31T02:33:15;94760.28;;;20.39;100.00
28626;BME280;18905;42.668;23.364;2023-07-31T02:35:41;94751.66;;;20.30;100.00
28626;BME280;18905;42.668;23.364;2023-07-31T02:38:07;94755.22;;;20.48;100.00
28626;BME280;18905;42.668;23.364;2023-07-31T02:40:32;94750.91;;;20.47;100.00
28626;BME280;18905;42.668;23.364;2023-07-31T02:42:57;94751.31;;;20.42;100.00
28626;BME280;18905;42.668;23.364;2023-07-31T02:45:25;94713.66;;;20.29;100.00
28626;BME280;18905;42.668;23.364;2023-07-31T02:47:51;94745.84;;;20.63;100.00
28626;BME280;18905;42.668;23.364;2023-07-31T02:50:16;94741.47;;;20.38;100.00
28626;BME280;18905;42.668;23.364;2023-07-31T02:52:41;94766.19;;;20.55;100.00
28626;BME280;18905;42.668;23.364;2023-07-31T02:55:07;94739.13;;;20.36;100.00
28626;BME280;18905;42.668;23.364;2023-07-31T02:57:34;94767.38;;;20.47;100.00
28626;BME280;18905;42.668;23.364;2023-07-31T02:59:59;94765.78;;;20.36;100.00
28626;BME280;18905;42.668;23.364;2023-07-31T03:02:24;94765.03;;;20.49;100.00
28626;BME280;18905;42.668;23.364;2023-07-31T03:04:50;94771.34;;;20.60;100.00
28626;BME280;18905;42.668;23.364;2023-07-31T03:07:15;94751.69;;;20.48;100.00
28626;BME280;18905;42.668;23.364;2023-07-31T03:09:40;94752.53;;;20.59;100.00
28626;BME280;18905;42.668;23.364;2023-07-31T03:12:06;94774.09;;;20.71;100.00
28626;BME280;18905;42.668;23.364;2023-07-31T03:14:32;94754.81;;;20.39;100.00
28626;BME280;18905;42.668;23.364;2023-07-31T03:16:57;94776.41;;;20.62;100.00
28626;BME280;18905;42.668;23.364;2023-07-31T03:19:22;94782.66;;;20.55;100.00
28626;BME280;18905;42.668;23.364;2023-07-31T03:21:48;94782.75;;;20.83;100.00
28626;BME280;18905;42.668;23.364;2023-07-31T03:24:13;94768.63;;;20.74;100.00
28626;BME280;18905;42.668;23.364;2023-07-31T03:26:39;94778.09;;;20.91;100.00
28626;BME280;18905;42.668;23.364;2023-07-31T03:29:06;94776.06;;;20.74;100.00
28626;BME280;18905;42.668;23.364;2023-07-31T03:31:32;94785.81;;;20.61;100.00
28626;BME280;18905;42.668;23.364;2023-07-31T03:33:57;94786.53;;;20.40;100.00
28626;BME280;18905;42.668;23.364;2023-07-31T03:36:22;94788.56;;;20.64;100.00
28626;BME280;18905;42.668;23.364;2023-07-31T03:38:48;94772.53;;;20.80;100.00
28626;BME280;18905;42.668;23.364;2023-07-31T03:41:13;94774.56;;;20.98;100.00
28626;BME280;18905;42.668;23.364;2023-07-31T03:43:39;94788.59;;;20.78;100.00
28626;BME280;18905;42.668;23.364;2023-07-31T03:46:04;94770.97;;;20.79;100.00
28626;BME280;18905;42.668;23.364;2023-07-31T03:48:30;94770.97;;;20.86;100.00
28626;BME280;18905;42.668;23.364;2023-07-31T03:50:55;94775.28;;;20.84;100.00
28626;BME280;18905;42.668;23.364;2023-07-31T03:53:21;94776.91;;;20.92;100.00
28626;BME280;18905;42.668;23.364;2023-07-31T03:55:46;94785.13;;;20.92;100.00
28626;BME280;18905;42.668;23.364;2023-07-31T03:58:12;94764.28;;;20.66;100.00
28626;BME280;18905;42.668;23.364;2023-07-31T04:00:37;94790.25;;;21.04;100.00
28626;BME280;18905;42.668;23.364;2023-07-31T04:03:03;94796.50;;;20.94;100.00
28626;BME280;18905;42.668;23.364;2023-07-31T04:05:31;94799.25;;;20.91;100.00
28626;BME280;18905;42.668;23.364;2023-07-31T04:07:56;94774.53;;;20.87;100.00
28626;BME280;18905;42.668;23.364;2023-07-31T04:10:22;94801.25;;;21.11;100.00
28626;BME280;18905;42.668;23.364;2023-07-31T04:12:48;94808.28;;;20.98;100.00
28626;BME280;18905;42.668;23.364;2023-07-31T04:15:13;94800.44;;;21.00;100.00
28626;BME280;18905;42.668;23.364;2023-07-31T04:17:39;94781.53;;;20.70;100.00
28626;BME280;18905;42.668;23.364;2023-07-31T04:20:05;94793.78;;;20.98;100.00
28626;BME280;18905;42.668;23.364;2023-07-31T04:22:30;94794.16;;;20.96;100.00
28626;BME280;18905;42.668;23.364;2023-07-31T04:24:56;94803.97;;;20.94;100.00
28626;BME280;18905;42.668;23.364;2023-07-31T04:27:21;94799.22;;;20.87;100.00
28626;BME280;18905;42.668;23.364;2023-07-31T04:29:46;94814.59;;;21.09;100.00
28626;BME280;18905;42.668;23.364;2023-07-31T04:32:12;94804.28;;;20.85;100.00
28626;BME280;18905;42.668;23.364;2023-07-31T04:34:38;94805.03;;;20.64;100.00
28626;BME280;18905;42.668;23.364;2023-07-31T04:37:03;94793.25;;;20.53;100.00
28626;BME280;18905;42.668;23.364;2023-07-31T04:39:29;94805.84;;;20.79;100.00
28626;BME280;18905;42.668;23.364;2023-07-31T04:41:54;94808.22;;;20.84;100.00
28626;BME280;18905;42.668;23.364;2023-07-31T04:44:19;94794.91;;;20.89;100.00
28626;BME280;18905;42.668;23.364;2023-07-31T04:46:45;94801.66;;;21.17;100.00
28626;BME280;18905;42.668;23.364;2023-07-31T04:49:11;94783.56;;;21.02;100.00
28626;BME280;18905;42.668;23.364;2023-07-31T04:51:36;94777.59;;;20.57;100.00
28626;BME280;18905;42.668;23.364;2023-07-31T04:54:02;94813.69;;;20.84;100.00
28626;BME280;18905;42.668;23.364;2023-07-31T04:56:27;94791.44;;;20.96;100.00
28626;BME280;18905;42.668;23.364;2023-07-31T04:58:52;94815.38;;;21.27;100.00
28626;BME280;18905;42.668;23.364;2023-07-31T05:01:18;94816.97;;;21.39;100.00
28626;BME280;18905;42.668;23.364;2023-07-31T05:03:45;94807.53;;;21.43;100.00
28626;BME280;18905;42.668;23.364;2023-07-31T05:06:10;94774.94;;;21.56;100.00
28626;BME280;18905;42.668;23.364;2023-07-31T05:08:36;94798.84;;;22.01;100.00
28626;BME280;18905;42.668;23.364;2023-07-31T05:11:02;94784.66;;;22.20;100.00
28626;BME280;18905;42.668;23.364;2023-07-31T05:13:27;94790.09;;;22.41;100.00
28626;BME280;18905;42.668;23.364;2023-07-31T05:15:52;94789.84;;;21.93;100.00
28626;BME280;18905;42.668;23.364;2023-07-31T05:18:19;94774.41;;;22.31;100.00
28626;BME280;18905;42.668;23.364;2023-07-31T05:20:44;94787.84;;;22.08;100.00
28626;BME280;18905;42.668;23.364;2023-07-31T05:23:09;94770.63;;;21.83;100.00
28626;BME280;18905;42.668;23.364;2023-07-31T05:25:35;94780.75;;;22.14;100.00
28626;BME280;18905;42.668;23.364;2023-07-31T05:28:00;94755.69;;;21.91;100.00
28626;BME280;18905;42.668;23.364;2023-07-31T05:30:25;94783.03;;;22.33;100.00
28626;BME280;18905;42.668;23.364;2023-07-31T05:32:51;94784.34;;;22.93;100.00
28626;BME280;18905;42.668;23.364;2023-07-31T05:35:17;94763.19;;;23.38;100.00
28626;BME280;18905;42.668;23.364;2023-07-31T05:37:42;94738.03;;;23.36;100.00
28626;BME280;18905;42.668;23.364;2023-07-31T05:40:08;94782.47;;;23.38;100.00
28626;BME280;18905;42.668;23.364;2023-07-31T05:42:33;94772.69;;;22.68;100.00
28626;BME280;18905;42.668;23.364;2023-07-31T05:44:59;94781.22;;;22.88;100.00
28626;BME280;18905;42.668;23.364;2023-07-31T05:47:25;94786.03;;;22.73;100.00
28626;BME280;18905;42.668;23.364;2023-07-31T05:49:50;94782.44;;;22.80;100.00
28626;BME280;18905;42.668;23.364;2023-07-31T05:52:18;94782.28;;;23.04;100.00
28626;BME280;18905;42.668;23.364;2023-07-31T05:54:43;94771.94;;;23.26;100.00
28626;BME280;18905;42.668;23.364;2023-07-31T05:57:09;94796.19;;;22.80;100.00
28626;BME280;18905;42.668;23.364;2023-07-31T05:59:34;94776.47;;;22.92;100.00
28626;BME280;18905;42.668;23.364;2023-07-31T06:01:59;94775.19;;;22.35;100.00
28626;BME280;18905;42.668;23.364;2023-07-31T06:04:25;94787.00;;;22.25;100.00
28626;BME280;18905;42.668;23.364;2023-07-31T06:06:51;94784.22;;;22.32;100.00
28626;BME280;18905;42.668;23.364;2023-07-31T06:09:16;94810.09;;;22.59;100.00
28626;BME280;18905;42.668;23.364;2023-07-31T06:11:42;94805.84;;;22.33;100.00
28626;BME280;18905;42.668;23.364;2023-07-31T06:14:07;94791.25;;;22.54;100.00
28626;BME280;18905;42.668;23.364;2023-07-31T06:16:32;94770.88;;;23.06;100.00
28626;BME280;18905;42.668;23.364;2023-07-31T06:18:58;94791.94;;;23.37;100.00
28626;BME280;18905;42.668;23.364;2023-07-31T06:21:23;94802.16;;;23.36;100.00
28626;BME280;18905;42.668;23.364;2023-07-31T06:23:48;94784.22;;;23.65;100.00
28626;BME280;18905;42.668;23.364;2023-07-31T06:26:14;94757.56;;;24.29;100.00
28626;BME280;18905;42.668;23.364;2023-07-31T06:28:39;94767.88;;;24.22;100.00
28626;BME280;18905;42.668;23.364;2023-07-31T06:31:05;94794.00;;;24.81;100.00
28626;BME280;18905;42.668;23.364;2023-07-31T06:33:30;94781.47;;;25.03;100.00
28626;BME280;18905;42.668;23.364;2023-07-31T06:35:56;94763.03;;;25.23;100.00
28626;BME280;18905;42.668;23.364;2023-07-31T06:38:25;94780.22;;;24.47;100.00
28626;BME280;18905;42.668;23.364;2023-07-31T06:40:51;94777.53;;;23.63;100.00
28626;BME280;18905;42.668;23.364;2023-07-31T06:45:52;94638.16;;;23.25;100.00
28626;BME280;18905;42.668;23.364;2023-07-31T06:48:17;94648.53;;;22.56;100.00
28626;BME280;18905;42.668;23.364;2023-07-31T06:50:43;94747.28;;;24.00;100.00
28626;BME280;18905;42.668;23.364;2023-07-31T06:53:09;94734.88;;;23.78;100.00
28626;BME280;18905;42.668;23.364;2023-07-31T07:00:44;94681.53;;;23.95;100.00
28626;BME280;18905;42.668;23.364;2023-07-31T07:03:10;94768.31;;;24.20;100.00
28626;BME280;18905;42.668;23.364;2023-07-31T07:05:36;94796.38;;;25.09;100.00
28626;BME280;18905;42.668;23.364;2023-07-31T07:08:01;94712.41;;;24.46;100.00
28626;BME280;18905;42.668;23.364;2023-07-31T07:10:27;94685.69;;;24.40;100.00
28626;BME280;18905;42.668;23.364;2023-07-31T07:12:53;94707.16;;;24.55;100.00
28626;BME280;18905;42.668;23.364;2023-07-31T07:15:20;94687.66;;;24.39;100.00
28626;BME280;18905;42.668;23.364;2023-07-31T07:17:52;94724.50;;;25.39;100.00
28626;BME280;18905;42.668;23.364;2023-07-31T07:20:17;94641.25;;;23.30;100.00
28626;BME280;18905;42.668;23.364;2023-07-31T07:22:45;94794.09;;;24.40;100.00
28626;BME280;18905;42.668;23.364;2023-07-31T07:25:11;94690.19;;;24.57;100.00
28626;BME280;18905;42.668;23.364;2023-07-31T07:27:36;94677.16;;;24.61;100.00
28626;BME280;18905;42.668;23.364;2023-07-31T07:30:02;94678.19;;;23.73;100.00
28626;BME280;18905;42.668;23.364;2023-07-31T07:32:29;94727.88;;;24.07;100.00
28626;BME280;18905;42.668;23.364;2023-07-31T07:34:55;94700.03;;;23.57;100.00
28626;BME280;18905;42.668;23.364;2023-07-31T07:37:21;94705.44;;;23.64;100.00
28626;BME280;18905;42.668;23.364;2023-07-31T07:42:22;94693.66;;;24.34;100.00
28626;BME280;18905;42.668;23.364;2023-07-31T07:44:47;94700.59;;;24.76;100.00
28626;BME280;18905;42.668;23.364;2023-07-31T07:47:13;94648.59;;;24.71;100.00
28626;BME280;18905;42.668;23.364;2023-07-31T07:49:39;94650.75;;;24.60;100.00
28626;BME280;18905;42.668;23.364;2023-07-31T07:52:05;94762.25;;;24.66;100.00
28626;BME280;18905;42.668;23.364;2023-07-31T07:54:34;94690.84;;;24.68;100.00
28626;BME280;18905;42.668;23.364;2023-07-31T07:57:00;94780.47;;;25.92;100.00
28626;BME280;18905;42.668;23.364;2023-07-31T07:59:25;94694.19;;;25.78;95.03
28626;BME280;18905;42.668;23.364;2023-07-31T08:01:50;94700.19;;;25.96;94.45
28626;BME280;18905;42.668;23.364;2023-07-31T08:04:16;94739.88;;;27.03;89.59
28626;BME280;18905;42.668;23.364;2023-07-31T08:42:55;94788.63;;;27.68;87.27
28626;BME280;18905;42.668;23.364;2023-07-31T08:45:27;94695.63;;;26.64;84.74
28626;BME280;18905;42.668;23.364;2023-07-31T08:50:28;94776.78;;;27.83;78.38
28626;BME280;18905;42.668;23.364;2023-07-31T08:52:53;94785.69;;;27.91;78.70
28626;BME280;18905;42.668;23.364;2023-07-31T08:55:19;94675.38;;;27.50;76.69
28626;BME280;18905;42.668;23.364;2023-07-31T09:00:26;94810.78;;;26.42;85.72
28626;BME280;18905;42.668;23.364;2023-07-31T09:03:03;94727.84;;;26.54;81.10
28626;BME280;18905;42.668;23.364;2023-07-31T09:05:30;94716.66;;;27.13;80.22
28626;BME280;18905;42.668;23.364;2023-07-31T09:10:33;94796.09;;;28.03;74.64
28626;BME280;18905;42.668;23.364;2023-07-31T09:12:59;94671.41;;;27.19;74.86
28626;BME280;18905;42.668;23.364;2023-07-31T09:15:25;94769.31;;;28.41;71.74
28626;BME280;18905;42.668;23.364;2023-07-31T09:17:59;94790.34;;;28.26;73.70
28626;BME280;18905;42.668;23.364;2023-07-31T09:23:19;94768.50;;;28.69;70.26
28626;BME280;18905;42.668;23.364;2023-07-31T09:25:46;94773.19;;;29.26;66.80
28626;BME280;18905;42.668;23.364;2023-07-31T09:28:12;94773.19;;;29.13;64.73
28626;BME280;18905;42.668;23.364;2023-07-31T09:30:49;94754.41;;;28.19;70.68
28626;BME280;18905;42.668;23.364;2023-07-31T09:33:15;94765.03;;;28.08;72.38
28626;BME280;18905;42.668;23.364;2023-07-31T09:35:41;94769.41;;;28.66;67.53
28626;BME280;18905;42.668;23.364;2023-07-31T09:38:07;94780.81;;;28.97;67.40
28626;BME280;18905;42.668;23.364;2023-07-31T09:40:35;94772.66;;;28.20;69.91
28626;BME280;18905;42.668;23.364;2023-07-31T09:48:14;94762.38;;;29.03;67.12
28626;BME280;18905;42.668;23.364;2023-07-31T09:50:45;94747.56;;;28.93;67.15
28626;BME280;18905;42.668;23.364;2023-07-31T09:53:11;94757.47;;;28.53;70.02
28626;BME280;18905;42.668;23.364;2023-07-31T09:55:37;94747.38;;;27.86;72.18
28626;BME280;18905;42.668;23.364;2023-07-31T09:58:05;94731.94;;;28.58;70.46
28626;BME280;18905;42.668;23.364;2023-07-31T10:00:31;94767.19;;;29.27;66.96
28626;BME280;18905;42.668;23.364;2023-07-31T10:03:02;94755.44;;;28.95;64.97
28626;BME280;18905;42.668;23.364;2023-07-31T10:05:42;94756.97;;;28.42;67.79
28626;BME280;18905;42.668;23.364;2023-07-31T10:08:10;94746.09;;;27.26;73.23
28626;BME280;18905;42.668;23.364;2023-07-31T10:10:42;94729.19;;;27.53;71.22
28626;BME280;18905;42.668;23.364;2023-07-31T10:13:08;94749.25;;;28.05;68.53
28626;BME280;18905;42.668;23.364;2023-07-31T10:15:35;94753.09;;;27.95;67.91
28626;BME280;18905;42.668;23.364;2023-07-31T10:20:36;94715.59;;;27.42;73.64
28626;BME280;18905;42.668;23.364;2023-07-31T10:28:25;94713.56;;;27.11;72.97
28626;BME280;18905;42.668;23.364;2023-07-31T10:30:51;94648.72;;;27.24;72.49
28626;BME280;18905;42.668;23.364;2023-07-31T10:33:17;94679.81;;;27.48;69.95
28626;BME280;18905;42.668;23.364;2023-07-31T10:35:47;94752.88;;;28.18;71.12
28626;BME280;18905;42.668;23.364;2023-07-31T10:38:12;94699.19;;;27.80;71.45
28626;BME280;18905;42.668;23.364;2023-07-31T10:40:38;94747.38;;;28.30;68.32
28626;BME280;18905;42.668;23.364;2023-07-31T10:43:05;94698.75;;;28.10;66.47
28626;BME280;18905;42.668;23.364;2023-07-31T10:45:35;94684.00;;;28.13;65.20
28626;BME280;18905;42.668;23.364;2023-07-31T10:48:15;94627.31;;;27.85;63.83
28626;BME280;18905;42.668;23.364;2023-07-31T10:50:51;94729.97;;;28.71;64.40
28626;BME280;18905;42.668;23.364;2023-07-31T10:53:29;94712.09;;;28.97;63.78
28626;BME280;18905;42.668;23.364;2023-07-31T10:56:06;94718.47;;;29.60;60.29
28626;BME280;18905;42.668;23.364;2023-07-31T10:58:32;94727.16;;;29.25;58.96
28626;BME280;18905;42.668;23.364;2023-07-31T11:01:03;94726.59;;;30.01;58.40
28626;BME280;18905;42.668;23.364;2023-07-31T11:03:45;94718.91;;;29.46;58.94
28626;BME280;18905;42.668;23.364;2023-07-31T11:06:12;94710.09;;;29.73;58.67
28626;BME280;18905;42.668;23.364;2023-07-31T11:08:48;94716.47;;;29.36;60.20
28626;BME280;18905;42.668;23.364;2023-07-31T11:11:18;94688.75;;;28.82;62.84
28626;BME280;18905;42.668;23.364;2023-07-31T11:13:49;94715.09;;;28.90;61.54
28626;BME280;18905;42.668;23.364;2023-07-31T11:16:16;94725.50;;;29.15;59.71
28626;BME280;18905;42.668;23.364;2023-07-31T11:18:43;94706.44;;;29.38;57.31
28626;BME280;18905;42.668;23.364;2023-07-31T11:21:20;94708.31;;;29.54;57.96
28626;BME280;18905;42.668;23.364;2023-07-31T11:23:47;94711.78;;;29.58;55.11
28626;BME280;18905;42.668;23.364;2023-07-31T11:26:12;94697.03;;;30.16;56.43
28626;BME280;18905;42.668;23.364;2023-07-31T11:28:38;94720.72;;;29.28;56.43
28626;BME280;18905;42.668;23.364;2023-07-31T11:31:04;94705.38;;;28.98;56.94
28626;BME280;18905;42.668;23.364;2023-07-31T11:33:30;94679.16;;;28.46;59.28
28626;BME280;18905;42.668;23.364;2023-07-31T11:35:56;94701.53;;;28.92;56.94
28626;BME280;18905;42.668;23.364;2023-07-31T11:38:23;94709.97;;;28.35;58.31
28626;BME280;18905;42.668;23.364;2023-07-31T11:40:52;94708.56;;;27.54;60.42
28626;BME280;18905;42.668;23.364;2023-07-31T11:48:30;94684.16;;;28.63;59.71
28626;BME280;18905;42.668;23.364;2023-07-31T12:01:20;94613.84;;;27.55;63.73
28626;BME280;18905;42.668;23.364;2023-07-31T12:03:47;94608.16;;;28.03;61.91
28626;BME280;18905;42.668;23.364;2023-07-31T12:06:14;94614.59;;;28.42;61.12
28626;BME280;18905;42.668;23.364;2023-07-31T12:08:39;94685.66;;;29.30;56.10
28626;BME280;18905;42.668;23.364;2023-07-31T12:11:06;94634.88;;;28.38;57.82
28626;BME280;18905;42.668;23.364;2023-07-31T12:16:07;94681.69;;;29.19;57.88
28626;BME280;18905;42.668;23.364;2023-07-31T12:18:37;94688.97;;;28.34;61.27
28626;BME280;18905;42.668;23.364;2023-07-31T12:23:38;94663.03;;;28.41;59.43
28626;BME280;18905;42.668;23.364;2023-07-31T12:28:54;94673.16;;;27.90;61.92
28626;BME280;18905;42.668;23.364;2023-07-31T12:31:22;94675.88;;;28.06;62.93
28626;BME280;18905;42.668;23.364;2023-07-31T12:41:33;94611.03;;;27.27;66.69
28626;BME280;18905;42.668;23.364;2023-07-31T12:43:59;94657.88;;;27.98;63.28
28626;BME280;18905;42.668;23.364;2023-07-31T12:46:24;94656.19;;;27.88;64.55
28626;BME280;18905;42.668;23.364;2023-07-31T12:48:49;94585.53;;;27.32;65.10
28626;BME280;18905;42.668;23.364;2023-07-31T13:01:36;94598.34;;;27.10;66.25
28626;BME280;18905;42.668;23.364;2023-07-31T13:06:36;94643.59;;;27.83;68.08
28626;BME280;18905;42.668;23.364;2023-07-31T13:09:02;94630.53;;;28.25;61.45
28626;BME280;18905;42.668;23.364;2023-07-31T13:52:50;94611.97;;;27.81;64.13
28626;BME280;18905;42.668;23.364;2023-07-31T14:00:25;94633.72;;;27.82;61.21
28626;BME280;18905;42.668;23.364;2023-07-31T14:02:51;94606.06;;;27.79;60.90
28626;BME280;18905;42.668;23.364;2023-07-31T14:05:16;94649.63;;;28.23;59.94
28626;BME280;18905;42.668;23.364;2023-07-31T14:07:41;94640.19;;;28.20;61.81
28626;BME280;18905;42.668;23.364;2023-07-31T14:10:07;94655.69;;;28.05;60.96
28626;BME280;18905;42.668;23.364;2023-07-31T14:12:32;94634.13;;;27.97;61.74
28626;BME280;18905;42.668;23.364;2023-07-31T14:14:58;94647.97;;;28.38;60.94
28626;BME280;18905;42.668;23.364;2023-07-31T14:17:23;94627.75;;;27.84;60.39
28626;BME280;18905;42.668;23.364;2023-07-31T14:19:49;94610.13;;;27.90;61.17
28626;BME280;18905;42.668;23.364;2023-07-31T14:22:15;94623.97;;;28.85;58.60
28626;BME280;18905;42.668;23.364;2023-07-31T14:24:41;94546.41;;;27.87;60.04
28626;BME280;18905;42.668;23.364;2023-07-31T14:27:06;94645.84;;;28.71;60.18
28626;BME280;18905;42.668;23.364;2023-07-31T14:29:32;94629.72;;;28.91;60.19
28626;BME280;18905;42.668;23.364;2023-07-31T14:31:57;94646.28;;;29.19;58.84
28626;BME280;18905;42.668;23.364;2023-07-31T14:34:22;94649.72;;;29.36;57.86
28626;BME280;18905;42.668;23.364;2023-07-31T14:36:48;94627.63;;;28.70;61.14
28626;BME280;18905;42.668;23.364;2023-07-31T14:39:13;94642.63;;;30.98;53.34
28626;BME280;18905;42.668;23.364;2023-07-31T14:41:39;94646.72;;;29.43;57.59
28626;BME280;18905;42.668;23.364;2023-07-31T14:44:04;94621.53;;;29.93;55.71
28626;BME280;18905;42.668;23.364;2023-07-31T14:46:29;94637.59;;;28.92;62.65
28626;BME280;18905;42.668;23.364;2023-07-31T14:48:55;94646.44;;;29.75;59.75
28626;BME280;18905;42.668;23.364;2023-07-31T14:51:20;94624.13;;;30.30;57.48
28626;BME280;18905;42.668;23.364;2023-07-31T14:53:46;94632.44;;;29.66;58.96
28626;BME280;18905;42.668;23.364;2023-07-31T14:56:12;94621.59;;;28.58;62.26
28626;BME280;18905;42.668;23.364;2023-07-31T14:58:37;94637.81;;;29.35;60.31
28626;BME280;18905;42.668;23.364;2023-07-31T15:01:03;94646.53;;;30.05;58.81
28626;BME280;18905;42.668;23.364;2023-07-31T15:03:28;94651.34;;;31.09;55.54
28626;BME280;18905;42.668;23.364;2023-07-31T15:05:53;94632.31;;;29.69;58.63
28626;BME280;18905;42.668;23.364;2023-07-31T15:08:19;94613.50;;;30.90;54.85
28626;BME280;18905;42.668;23.364;2023-07-31T15:10:44;94618.75;;;31.27;52.51
28626;BME280;18905;42.668;23.364;2023-07-31T15:13:10;94616.81;;;31.15;52.25
28626;BME280;18905;42.668;23.364;2023-07-31T15:15:35;94625.84;;;30.80;55.39
28626;BME280;18905;42.668;23.364;2023-07-31T15:18:00;94648.50;;;30.05;58.94
28626;BME280;18905;42.668;23.364;2023-07-31T15:20:26;94641.16;;;29.89;60.83
28626;BME280;18905;42.668;23.364;2023-07-31T15:22:51;94640.63;;;29.10;60.89
28626;BME280;18905;42.668;23.364;2023-07-31T15:25:16;94636.41;;;28.93;64.13